createdAt,value
2019-02-15T00:00:29.392Z,1028.16
2019-02-15T00:01:29.389Z,1028.14
2019-02-15T00:02:29.395Z,1028.21
2019-02-15T00:03:29.362Z,1028.16
2019-02-15T00:04:29.350Z,1028.16
2019-02-15T00:05:29.334Z,1028.14
2019-02-15T00:06:29.328Z,1028.17
2019-02-15T00:07:29.338Z,1028.15
2019-02-15T00:08:29.318Z,1028.18
2019-02-15T00:09:29.291Z,1028.17
2019-02-15T00:10:29.280Z,1028.19
2019-02-15T00:11:29.286Z,1028.16
2019-02-15T00:12:29.279Z,1028.14
2019-02-15T00:13:29.255Z,1028.19
2019-02-15T00:14:29.238Z,1028.18
2019-02-15T00:15:29.245Z,1028.14
2019-02-15T00:16:29.215Z,1028.11
2019-02-15T00:17:29.218Z,1028.12
2019-02-15T00:18:30.234Z,1028.12
2019-02-15T00:19:29.189Z,1028.11
2019-02-15T00:20:29.171Z,1028.10
2019-02-15T00:21:29.172Z,1028.15
2019-02-15T00:22:29.157Z,1028.15
2019-02-15T00:23:29.154Z,1028.11
2019-02-15T00:24:29.133Z,1028.17
2019-02-15T00:25:29.134Z,1028.16
2019-02-15T00:26:29.112Z,1028.16
2019-02-15T00:27:29.104Z,1028.12
2019-02-15T00:28:29.095Z,1028.16
2019-02-15T00:29:29.085Z,1028.15
2019-02-15T00:30:29.080Z,1028.15
2019-02-15T00:31:29.059Z,1028.20
2019-02-15T00:32:29.044Z,1028.15
2019-02-15T00:33:29.034Z,1028.23
2019-02-15T00:34:29.025Z,1028.16
2019-02-15T00:35:29.018Z,1028.19
2019-02-15T00:36:29.013Z,1028.20
2019-02-15T00:37:29.004Z,1028.19
2019-02-15T00:38:29.013Z,1028.18
2019-02-15T00:39:28.971Z,1028.17
2019-02-15T00:40:28.965Z,1028.18
2019-02-15T00:41:28.957Z,1028.13
2019-02-15T00:42:28.956Z,1028.15
2019-02-15T00:43:28.937Z,1028.13
2019-02-15T00:44:28.917Z,1028.12
2019-02-15T00:45:28.912Z,1028.13
2019-02-15T00:46:28.904Z,1028.14
2019-02-15T00:47:28.877Z,1028.11
2019-02-15T00:48:28.881Z,1028.14
2019-02-15T00:49:28.859Z,1028.16
2019-02-15T00:50:28.857Z,1028.09
2019-02-15T00:51:28.852Z,1028.11
2019-02-15T00:52:28.843Z,1028.12
2019-02-15T00:53:28.835Z,1028.07
2019-02-15T00:54:28.809Z,1028.09
2019-02-15T00:55:28.804Z,1028.12
2019-02-15T00:56:28.789Z,1028.14
2019-02-15T00:57:28.793Z,1028.17
2019-02-15T00:58:28.763Z,1028.12
2019-02-15T00:59:28.753Z,1028.13
2019-02-15T01:00:28.749Z,1028.13
2019-02-15T01:01:28.755Z,1028.15
2019-02-15T01:02:28.732Z,1028.11
2019-02-15T01:03:28.721Z,1028.17
2019-02-15T01:04:28.741Z,1028.12
2019-02-15T01:05:28.697Z,1028.14
2019-02-15T01:06:28.681Z,1028.11
2019-02-15T01:07:28.666Z,1028.13
2019-02-15T01:08:28.665Z,1028.07
2019-02-15T01:09:28.663Z,1028.09
2019-02-15T01:10:28.641Z,1028.08
2019-02-15T01:11:30.439Z,1028.08
2019-02-15T01:12:28.632Z,1028.07
2019-02-15T01:13:31.230Z,1028.07
2019-02-15T01:14:28.636Z,1028.05
2019-02-15T01:15:28.611Z,1028.07
2019-02-15T01:16:28.595Z,1028.07
2019-02-15T01:17:28.575Z,1028.01
2019-02-15T01:18:28.562Z,1028.02
2019-02-15T01:19:28.545Z,1028.00
2019-02-15T01:20:28.535Z,1028.02
2019-02-15T01:21:28.518Z,1028.02
2019-02-15T01:22:28.508Z,1028.00
2019-02-15T01:23:28.507Z,1028.00
2019-02-15T01:24:28.496Z,1027.97
2019-02-15T01:25:28.477Z,1027.94
2019-02-15T01:26:28.461Z,1027.94
2019-02-15T01:27:28.459Z,1027.92
2019-02-15T01:28:28.441Z,1027.89
2019-02-15T01:29:28.441Z,1027.90
2019-02-15T01:30:28.418Z,1027.92
2019-02-15T01:31:28.424Z,1027.93
2019-02-15T01:32:28.397Z,1027.89
2019-02-15T01:33:28.383Z,1027.89
2019-02-15T01:34:28.382Z,1027.87
2019-02-15T01:35:28.367Z,1027.86
2019-02-15T01:36:28.371Z,1027.86
2019-02-15T01:37:28.349Z,1027.86
2019-02-15T01:38:28.335Z,1027.87
2019-02-15T01:39:28.333Z,1027.87
2019-02-15T01:40:28.307Z,1027.90
2019-02-15T01:41:28.305Z,1027.93
2019-02-15T01:42:28.310Z,1027.86
2019-02-15T01:43:28.281Z,1027.86
2019-02-15T01:44:28.270Z,1027.83
2019-02-15T01:45:28.271Z,1027.77
2019-02-15T01:46:28.255Z,1027.80
2019-02-15T01:47:28.241Z,1027.79
2019-02-15T01:48:28.232Z,1027.74
2019-02-15T01:49:28.218Z,1027.71
2019-02-15T01:50:28.209Z,1027.79
2019-02-15T01:51:28.191Z,1027.72
2019-02-15T01:52:28.188Z,1027.72
2019-02-15T01:53:28.183Z,1027.76
2019-02-15T01:54:28.160Z,1027.72
2019-02-15T01:55:28.155Z,1027.72
2019-02-15T01:56:28.167Z,1027.69
2019-02-15T01:57:28.132Z,1027.72
2019-02-15T01:58:28.157Z,1027.72
2019-02-15T01:59:28.148Z,1027.69
2019-02-15T02:00:28.097Z,1027.69
2019-02-15T02:01:28.087Z,1027.70
2019-02-15T02:02:28.073Z,1027.70
2019-02-15T02:03:28.061Z,1027.67
2019-02-15T02:04:28.054Z,1027.68
2019-02-15T02:05:28.049Z,1027.68
2019-02-15T02:06:28.027Z,1027.67
2019-02-15T02:07:28.023Z,1027.71
2019-02-15T02:08:28.011Z,1027.64
2019-02-15T02:09:28.001Z,1027.67
2019-02-15T02:10:27.995Z,1027.69
2019-02-15T02:11:27.991Z,1027.67
2019-02-15T02:12:27.970Z,1027.65
2019-02-15T02:13:27.969Z,1027.61
2019-02-15T02:14:27.942Z,1027.65
2019-02-15T02:15:27.949Z,1027.60
2019-02-15T02:16:27.932Z,1027.65
2019-02-15T02:17:27.907Z,1027.65
2019-02-15T02:18:27.905Z,1027.63
2019-02-15T02:19:27.897Z,1027.68
2019-02-15T02:20:27.881Z,1027.70
2019-02-15T02:21:27.870Z,1027.67
2019-02-15T02:22:27.881Z,1027.68
2019-02-15T02:23:27.847Z,1027.66
2019-02-15T02:24:27.837Z,1027.64
2019-02-15T02:25:27.833Z,1027.62
2019-02-15T02:26:27.816Z,1027.57
2019-02-15T02:27:27.815Z,1027.59
2019-02-15T02:28:27.801Z,1027.53
2019-02-15T02:29:27.784Z,1027.49
2019-02-15T02:30:27.780Z,1027.50
2019-02-15T02:31:27.768Z,1027.50
2019-02-15T02:32:27.764Z,1027.47
2019-02-15T02:33:27.752Z,1027.50
2019-02-15T02:34:27.733Z,1027.49
2019-02-15T02:35:27.726Z,1027.50
2019-02-15T02:36:27.715Z,1027.49
2019-02-15T02:37:27.713Z,1027.43
2019-02-15T02:38:27.692Z,1027.50
2019-02-15T02:39:27.694Z,1027.45
2019-02-15T02:40:27.671Z,1027.46
2019-02-15T02:41:27.657Z,1027.43
2019-02-15T02:42:27.648Z,1027.52
2019-02-15T02:43:27.648Z,1027.49
2019-02-15T02:44:27.631Z,1027.48
2019-02-15T02:45:27.627Z,1027.45
2019-02-15T02:46:27.610Z,1027.43
2019-02-15T02:47:27.597Z,1027.47
2019-02-15T02:48:27.584Z,1027.37
2019-02-15T02:49:27.591Z,1027.41
2019-02-15T02:50:27.572Z,1027.41
2019-02-15T02:51:27.561Z,1027.42
2019-02-15T02:52:27.546Z,1027.41
2019-02-15T02:53:27.541Z,1027.43
2019-02-15T02:54:27.529Z,1027.43
2019-02-15T02:55:27.510Z,1027.45
2019-02-15T02:56:27.512Z,1027.43
2019-02-15T02:57:27.492Z,1027.42
2019-02-15T02:58:27.478Z,1027.41
2019-02-15T02:59:27.471Z,1027.44
2019-02-15T03:00:33.528Z,1027.43
2019-02-15T03:01:28.450Z,1027.43
2019-02-15T03:02:27.549Z,1027.41
2019-02-15T03:03:27.425Z,1027.43
2019-02-15T03:04:27.421Z,1027.43
2019-02-15T03:05:27.410Z,1027.43
2019-02-15T03:06:27.406Z,1027.44
2019-02-15T03:07:27.394Z,1027.47
2019-02-15T03:08:27.381Z,1027.45
2019-02-15T03:09:27.376Z,1027.44
2019-02-15T03:10:27.355Z,1027.40
2019-02-15T03:11:27.348Z,1027.42
2019-02-15T03:12:27.354Z,1027.42
2019-02-15T03:13:27.329Z,1027.43
2019-02-15T03:14:27.334Z,1027.45
2019-02-15T03:15:27.303Z,1027.44
2019-02-15T03:16:27.289Z,1027.46
2019-02-15T03:17:27.276Z,1027.41
2019-02-15T03:18:27.279Z,1027.44
2019-02-15T03:19:27.270Z,1027.43
2019-02-15T03:20:31.392Z,1027.47
2019-02-15T03:21:27.241Z,1027.41
2019-02-15T03:22:27.227Z,1027.42
2019-02-15T03:23:27.221Z,1027.42
2019-02-15T03:24:27.215Z,1027.40
2019-02-15T03:25:27.196Z,1027.41
2019-02-15T03:26:27.184Z,1027.39
2019-02-15T03:27:27.180Z,1027.44
2019-02-15T03:28:27.168Z,1027.42
2019-02-15T03:29:27.164Z,1027.46
2019-02-15T03:30:27.149Z,1027.49
2019-02-15T03:31:27.143Z,1027.44
2019-02-15T03:32:27.136Z,1027.48
2019-02-15T03:33:27.130Z,1027.50
2019-02-15T03:34:27.103Z,1027.47
2019-02-15T03:35:27.165Z,1027.50
2019-02-15T03:36:27.093Z,1027.49
2019-02-15T03:37:27.097Z,1027.50
2019-02-15T03:38:27.062Z,1027.54
2019-02-15T03:39:27.072Z,1027.53
2019-02-15T03:40:27.068Z,1027.56
2019-02-15T03:41:27.029Z,1027.53
2019-02-15T03:42:27.032Z,1027.56
2019-02-15T03:43:27.021Z,1027.53
2019-02-15T03:44:26.992Z,1027.51
2019-02-15T03:45:26.984Z,1027.56
2019-02-15T03:46:27.003Z,1027.57
2019-02-15T03:47:26.967Z,1027.58
2019-02-15T03:48:28.936Z,1027.56
2019-02-15T03:49:26.943Z,1027.54
2019-02-15T03:50:26.935Z,1027.55
2019-02-15T03:51:26.932Z,1027.52
2019-02-15T03:52:26.922Z,1027.54
2019-02-15T03:53:26.902Z,1027.56
2019-02-15T03:54:26.901Z,1027.55
2019-02-15T03:55:26.884Z,1027.50
2019-02-15T03:56:26.871Z,1027.53
2019-02-15T03:57:26.861Z,1027.50
2019-02-15T03:58:26.851Z,1027.49
2019-02-15T03:59:26.847Z,1027.53
2019-02-15T04:00:26.886Z,1027.48
2019-02-15T04:01:26.816Z,1027.51
2019-02-15T04:02:26.816Z,1027.49
2019-02-15T04:03:26.796Z,1027.47
2019-02-15T04:04:26.787Z,1027.47
2019-02-15T04:05:26.788Z,1027.44
2019-02-15T04:06:26.773Z,1027.51
2019-02-15T04:07:26.753Z,1027.50
2019-02-15T04:08:26.745Z,1027.50
2019-02-15T04:09:26.732Z,1027.53
2019-02-15T04:10:26.719Z,1027.50
2019-02-15T04:11:26.720Z,1027.46
2019-02-15T04:12:26.707Z,1027.50
2019-02-15T04:13:26.692Z,1027.51
2019-02-15T04:14:33.010Z,1027.50
2019-02-15T04:15:27.684Z,1027.51
2019-02-15T04:16:26.666Z,1027.49
2019-02-15T04:17:26.673Z,1027.52
2019-02-15T04:18:26.637Z,1027.50
2019-02-15T04:19:26.629Z,1027.47
2019-02-15T04:20:26.624Z,1027.48
2019-02-15T04:21:26.617Z,1027.51
2019-02-15T04:22:26.612Z,1027.49
2019-02-15T04:23:26.599Z,1027.51
2019-02-15T04:24:26.574Z,1027.49
2019-02-15T04:25:26.561Z,1027.53
2019-02-15T04:26:26.560Z,1027.50
2019-02-15T04:27:26.550Z,1027.60
2019-02-15T04:28:26.555Z,1027.50
2019-02-15T04:29:26.522Z,1027.58
2019-02-15T04:30:26.525Z,1027.56
2019-02-15T04:31:26.503Z,1027.55
2019-02-15T04:32:26.519Z,1027.57
2019-02-15T04:33:26.490Z,1027.57
2019-02-15T04:34:26.493Z,1027.55
2019-02-15T04:35:26.458Z,1027.62
2019-02-15T04:36:26.456Z,1027.58
2019-02-15T04:37:26.439Z,1027.58
2019-02-15T04:38:26.454Z,1027.53
2019-02-15T04:39:26.429Z,1027.59
2019-02-15T04:40:26.413Z,1027.53
2019-02-15T04:41:26.399Z,1027.57
2019-02-15T04:42:26.393Z,1027.58
2019-02-15T04:43:26.371Z,1027.46
2019-02-15T04:44:26.362Z,1027.44
2019-02-15T04:45:26.365Z,1027.47
2019-02-15T04:46:26.357Z,1027.47
2019-02-15T04:47:26.356Z,1027.50
2019-02-15T04:48:26.323Z,1027.55
2019-02-15T04:49:26.315Z,1027.55
2019-02-15T04:50:26.304Z,1027.57
2019-02-15T04:51:26.298Z,1027.64
2019-02-15T04:52:26.282Z,1027.64
2019-02-15T04:53:26.278Z,1027.64
2019-02-15T04:54:26.261Z,1027.64
2019-02-15T04:55:26.253Z,1027.64
2019-02-15T04:56:26.247Z,1027.64
2019-02-15T04:57:26.252Z,1027.63
2019-02-15T04:58:26.225Z,1027.58
2019-02-15T04:59:26.225Z,1027.55
2019-02-15T05:00:26.208Z,1027.56
2019-02-15T05:01:26.193Z,1027.53
2019-02-15T05:02:26.180Z,1027.57
2019-02-15T05:03:26.165Z,1027.57
2019-02-15T05:04:26.152Z,1027.60
2019-02-15T05:05:26.146Z,1027.58
2019-02-15T05:06:26.137Z,1027.62
2019-02-15T05:07:26.123Z,1027.60
2019-02-15T05:08:26.115Z,1027.60
2019-02-15T05:09:26.113Z,1027.64
2019-02-15T05:10:26.092Z,1027.65
2019-02-15T05:11:26.078Z,1027.64
2019-02-15T05:12:26.071Z,1027.63
2019-02-15T05:13:26.061Z,1027.60
2019-02-15T05:14:26.061Z,1027.60
2019-02-15T05:15:26.040Z,1027.63
2019-02-15T05:16:26.028Z,1027.63
2019-02-15T05:17:26.025Z,1027.62
2019-02-15T05:18:26.015Z,1027.58
2019-02-15T05:19:26.007Z,1027.64
2019-02-15T05:20:26.008Z,1027.62
2019-02-15T05:21:25.973Z,1027.62
2019-02-15T05:22:25.971Z,1027.64
2019-02-15T05:23:25.961Z,1027.59
2019-02-15T05:24:25.962Z,1027.60
2019-02-15T05:25:25.937Z,1027.61
2019-02-15T05:26:25.924Z,1027.59
2019-02-15T05:27:25.916Z,1027.63
2019-02-15T05:28:25.905Z,1027.58
2019-02-15T05:29:25.905Z,1027.64
2019-02-15T05:30:25.923Z,1027.60
2019-02-15T05:31:25.879Z,1027.60
2019-02-15T05:32:27.437Z,1027.57
2019-02-15T05:33:25.866Z,1027.57
2019-02-15T05:34:25.845Z,1027.65
2019-02-15T05:35:25.836Z,1027.60
2019-02-15T05:36:25.819Z,1027.61
2019-02-15T05:37:25.812Z,1027.55
2019-02-15T05:38:25.799Z,1027.54
2019-02-15T05:39:25.792Z,1027.51
2019-02-15T05:40:25.784Z,1027.52
2019-02-15T05:41:25.798Z,1027.51
2019-02-15T05:42:25.759Z,1027.51
2019-02-15T05:43:25.769Z,1027.55
2019-02-15T05:44:25.780Z,1027.54
2019-02-15T05:45:25.731Z,1027.51
2019-02-15T05:46:25.713Z,1027.57
2019-02-15T05:47:25.710Z,1027.51
2019-02-15T05:48:25.700Z,1027.55
2019-02-15T05:49:25.685Z,1027.58
2019-02-15T05:50:25.676Z,1027.59
2019-02-15T05:51:25.665Z,1027.53
2019-02-15T05:52:25.659Z,1027.55
2019-02-15T05:53:25.644Z,1027.66
2019-02-15T05:54:25.631Z,1027.60
2019-02-15T05:55:25.629Z,1027.60
2019-02-15T05:56:25.618Z,1027.61
2019-02-15T05:57:25.603Z,1027.60
2019-02-15T05:58:25.592Z,1027.62
2019-02-15T05:59:25.598Z,1027.69
2019-02-15T06:00:25.564Z,1027.69
2019-02-15T06:01:25.552Z,1027.69
2019-02-15T06:02:25.539Z,1027.68
2019-02-15T06:03:25.536Z,1027.67
2019-02-15T06:04:25.543Z,1027.62
2019-02-15T06:05:25.517Z,1027.63
2019-02-15T06:06:25.531Z,1027.63
2019-02-15T06:07:25.499Z,1027.67
2019-02-15T06:08:25.487Z,1027.62
2019-02-15T06:09:25.491Z,1027.67
2019-02-15T06:10:25.472Z,1027.70
2019-02-15T06:11:25.456Z,1027.66
2019-02-15T06:12:25.471Z,1027.71
2019-02-15T06:13:25.442Z,1027.68
2019-02-15T06:14:25.433Z,1027.64
2019-02-15T06:15:25.414Z,1027.69
2019-02-15T06:16:25.399Z,1027.66
2019-02-15T06:17:25.396Z,1027.69
2019-02-15T06:18:25.383Z,1027.67
2019-02-15T06:19:25.367Z,1027.68
2019-02-15T06:20:25.389Z,1027.70
2019-02-15T06:21:25.343Z,1027.67
2019-02-15T06:22:25.348Z,1027.68
2019-02-15T06:23:25.339Z,1027.66
2019-02-15T06:24:25.346Z,1027.69
2019-02-15T06:25:25.315Z,1027.70
2019-02-15T06:26:25.299Z,1027.66
2019-02-15T06:27:25.290Z,1027.67
2019-02-15T06:28:25.273Z,1027.68
2019-02-15T06:29:25.297Z,1027.67
2019-02-15T06:30:25.250Z,1027.68
2019-02-15T06:31:25.248Z,1027.74
2019-02-15T06:32:25.231Z,1027.70
2019-02-15T06:33:25.233Z,1027.69
2019-02-15T06:34:25.214Z,1027.71
2019-02-15T06:35:25.206Z,1027.73
2019-02-15T06:36:25.193Z,1027.72
2019-02-15T06:37:25.180Z,1027.73
2019-02-15T06:38:34.270Z,1027.74
2019-02-15T06:39:26.161Z,1027.76
2019-02-15T06:40:25.154Z,1027.77
2019-02-15T06:41:25.149Z,1027.79
2019-02-15T06:42:25.159Z,1027.80
2019-02-15T06:43:25.123Z,1027.78
2019-02-15T06:44:25.120Z,1027.82
2019-02-15T06:45:25.606Z,1027.81
2019-02-15T06:46:25.083Z,1027.80
2019-02-15T06:47:25.073Z,1027.80
2019-02-15T06:48:25.057Z,1027.87
2019-02-15T06:49:25.052Z,1027.79
2019-02-15T06:50:25.048Z,1027.81
2019-02-15T06:51:25.033Z,1027.81
2019-02-15T06:52:25.041Z,1027.79
2019-02-15T06:53:25.015Z,1027.85
2019-02-15T06:54:24.999Z,1027.87
2019-02-15T06:55:24.985Z,1027.84
2019-02-15T06:56:24.987Z,1027.88
2019-02-15T06:57:24.973Z,1027.86
2019-02-15T06:58:24.968Z,1027.88
2019-02-15T06:59:24.951Z,1027.91
2019-02-15T07:00:24.946Z,1027.89
2019-02-15T07:01:24.935Z,1027.87
2019-02-15T07:02:24.917Z,1027.84
2019-02-15T07:03:24.973Z,1027.87
2019-02-15T07:04:24.902Z,1027.88
2019-02-15T07:05:24.899Z,1027.90
2019-02-15T07:06:24.875Z,1027.91
2019-02-15T07:07:24.867Z,1027.95
2019-02-15T07:08:24.852Z,1027.95
2019-02-15T07:09:24.849Z,1027.97
2019-02-15T07:10:24.841Z,1027.98
2019-02-15T07:11:24.821Z,1027.97
2019-02-15T07:12:24.809Z,1028.01
2019-02-15T07:13:24.809Z,1027.99
2019-02-15T07:14:24.789Z,1028.04
2019-02-15T07:15:33.185Z,1027.99
2019-02-15T07:16:25.782Z,1028.01
2019-02-15T07:17:24.764Z,1027.96
2019-02-15T07:18:24.750Z,1027.94
2019-02-15T07:19:24.749Z,1027.95
2019-02-15T07:20:24.731Z,1027.99
2019-02-15T07:21:24.731Z,1027.97
2019-02-15T07:22:24.707Z,1027.94
2019-02-15T07:23:24.695Z,1028.00
2019-02-15T07:24:24.700Z,1027.94
2019-02-15T07:25:24.690Z,1027.98
2019-02-15T07:26:24.679Z,1028.00
2019-02-15T07:27:24.666Z,1027.96
2019-02-15T07:28:24.667Z,1028.01
2019-02-15T07:29:24.634Z,1027.96
2019-02-15T07:30:24.621Z,1028.01
2019-02-15T07:31:24.619Z,1028.04
2019-02-15T07:32:24.601Z,1028.08
2019-02-15T07:33:24.594Z,1028.25
2019-02-15T07:34:24.578Z,1028.24
2019-02-15T07:35:24.569Z,1028.32
2019-02-15T07:36:24.559Z,1028.32
2019-02-15T07:37:24.549Z,1028.36
2019-02-15T07:38:24.537Z,1028.33
2019-02-15T07:39:24.526Z,1028.28
2019-02-15T07:40:24.513Z,1028.24
2019-02-15T07:41:24.523Z,1028.15
2019-02-15T07:42:24.496Z,1027.91
2019-02-15T07:43:24.501Z,1027.90
2019-02-15T07:44:24.482Z,1028.00
2019-02-15T07:45:24.470Z,1028.13
2019-02-15T07:46:24.449Z,1028.25
2019-02-15T07:47:24.435Z,1028.17
2019-02-15T07:48:24.430Z,1028.15
2019-02-15T07:49:26.934Z,1028.04
2019-02-15T07:50:24.399Z,1027.96
2019-02-15T07:51:24.423Z,1027.92
2019-02-15T07:52:24.383Z,1027.85
2019-02-15T07:53:24.378Z,1027.80
2019-02-15T07:54:24.376Z,1027.84
2019-02-15T07:55:24.379Z,1027.82
2019-02-15T07:56:24.341Z,1027.81
2019-02-15T07:57:24.322Z,1027.77
2019-02-15T07:58:24.317Z,1027.76
2019-02-15T07:59:24.301Z,1027.74
2019-02-15T08:00:24.303Z,1027.71
2019-02-15T08:01:24.284Z,1027.72
2019-02-15T08:02:24.271Z,1027.72
2019-02-15T08:03:24.264Z,1027.77
2019-02-15T08:04:24.286Z,1027.76
2019-02-15T08:05:24.252Z,1027.75
2019-02-15T08:06:24.242Z,1027.82
2019-02-15T08:07:24.216Z,1027.85
2019-02-15T08:08:24.201Z,1027.85
2019-02-15T08:09:24.203Z,1027.97
2019-02-15T08:10:24.181Z,1028.06
2019-02-15T08:11:24.193Z,1028.12
2019-02-15T08:12:24.177Z,1028.20
2019-02-15T08:13:24.145Z,1028.23
2019-02-15T08:14:24.133Z,1028.22
2019-02-15T08:15:24.151Z,1028.22
2019-02-15T08:16:24.127Z,1028.24
2019-02-15T08:17:24.130Z,1028.26
2019-02-15T08:18:24.119Z,1028.28
2019-02-15T08:19:24.095Z,1028.28
2019-02-15T08:20:24.079Z,1028.25
2019-02-15T08:21:24.080Z,1028.34
2019-02-15T08:22:24.061Z,1028.31
2019-02-15T08:23:24.100Z,1028.31
2019-02-15T08:24:24.026Z,1028.36
2019-02-15T08:25:24.021Z,1028.35
2019-02-15T08:26:24.020Z,1028.32
2019-02-15T08:27:24.022Z,1028.38
2019-02-15T08:28:23.989Z,1028.45
2019-02-15T08:29:23.993Z,1028.40
2019-02-15T08:30:23.966Z,1028.48
2019-02-15T08:31:23.951Z,1028.44
2019-02-15T08:32:23.950Z,1028.44
2019-02-15T08:33:23.953Z,1028.49
2019-02-15T08:34:23.928Z,1028.50
2019-02-15T08:35:23.927Z,1028.49
2019-02-15T08:36:23.905Z,1028.47
2019-02-15T08:37:23.887Z,1028.52
2019-02-15T08:38:23.885Z,1028.57
2019-02-15T08:39:23.902Z,1028.55
2019-02-15T08:40:23.881Z,1028.61
2019-02-15T08:41:23.866Z,1028.53
2019-02-15T08:42:23.835Z,1028.59
2019-02-15T08:43:23.829Z,1028.59
2019-02-15T08:44:23.821Z,1028.61
2019-02-15T08:45:23.834Z,1028.62
2019-02-15T08:46:23.812Z,1028.63
2019-02-15T08:47:23.794Z,1028.62
2019-02-15T08:48:23.778Z,1028.66
2019-02-15T08:49:23.767Z,1028.66
2019-02-15T08:50:23.769Z,1028.71
2019-02-15T08:51:23.761Z,1028.68
2019-02-15T08:52:23.743Z,1028.74
2019-02-15T08:53:23.729Z,1028.72
2019-02-15T08:54:23.716Z,1028.76
2019-02-15T08:55:23.709Z,1028.78
2019-02-15T08:56:23.701Z,1028.76
2019-02-15T08:57:23.705Z,1028.78
2019-02-15T08:58:23.686Z,1028.82
2019-02-15T08:59:23.670Z,1028.87
2019-02-15T09:00:23.664Z,1028.83
2019-02-15T09:01:23.659Z,1028.89
2019-02-15T09:02:23.639Z,1028.86
2019-02-15T09:03:23.636Z,1028.88
2019-02-15T09:04:23.628Z,1028.87
2019-02-15T09:05:23.617Z,1028.90
2019-02-15T09:06:23.595Z,1028.87
2019-02-15T09:07:23.596Z,1028.91
2019-02-15T09:08:23.583Z,1028.88
2019-02-15T09:09:23.583Z,1028.92
2019-02-15T09:10:23.571Z,1028.90
2019-02-15T09:11:23.554Z,1029.00
2019-02-15T09:12:23.542Z,1028.99
2019-02-15T09:13:23.574Z,1028.98
2019-02-15T09:14:23.531Z,1028.99
2019-02-15T09:15:23.529Z,1028.99
2019-02-15T09:16:23.519Z,1029.02
2019-02-15T09:17:23.497Z,1029.05
2019-02-15T09:18:23.488Z,1029.02
2019-02-15T09:19:23.479Z,1029.01
2019-02-15T09:20:23.499Z,1028.97
2019-02-15T09:21:23.466Z,1029.01
2019-02-15T09:22:23.465Z,1029.04
2019-02-15T09:23:23.477Z,1029.01
2019-02-15T09:24:23.445Z,1028.99
2019-02-15T09:25:23.433Z,1028.99
2019-02-15T09:26:23.421Z,1029.01
2019-02-15T09:27:23.409Z,1029.04
2019-02-15T09:28:23.405Z,1029.04
2019-02-15T09:29:23.427Z,1029.03
2019-02-15T09:30:23.386Z,1029.04
2019-02-15T09:31:23.390Z,1029.04
2019-02-15T09:32:23.367Z,1029.06
2019-02-15T09:33:23.353Z,1029.08
2019-02-15T09:34:23.355Z,1029.12
2019-02-15T09:35:23.332Z,1029.11
2019-02-15T09:36:23.321Z,1029.12
2019-02-15T09:37:23.323Z,1029.11
2019-02-15T09:38:23.313Z,1029.10
2019-02-15T09:39:23.296Z,1029.05
2019-02-15T09:40:23.291Z,1029.07
2019-02-15T09:41:23.292Z,1029.05
2019-02-15T09:42:23.267Z,1029.05
2019-02-15T09:43:23.271Z,1029.11
2019-02-15T09:44:23.263Z,1029.03
2019-02-15T09:45:23.250Z,1028.90
2019-02-15T09:46:23.271Z,1028.77
2019-02-15T09:47:23.228Z,1028.68
2019-02-15T09:48:23.210Z,1028.83
2019-02-15T09:49:24.348Z,1028.91
2019-02-15T09:50:23.201Z,1028.92
2019-02-15T09:51:23.195Z,1028.91
2019-02-15T09:52:23.181Z,1028.71
2019-02-15T09:53:23.181Z,1028.45
2019-02-15T09:54:23.177Z,1028.59
2019-02-15T09:55:23.155Z,1028.53
2019-02-15T09:56:23.163Z,1028.57
2019-02-15T09:57:23.131Z,1028.55
2019-02-15T09:58:23.144Z,1028.51
2019-02-15T09:59:23.115Z,1028.50
2019-02-15T10:00:23.108Z,1028.45
2019-02-15T10:01:23.100Z,1028.31
2019-02-15T10:02:23.083Z,1028.26
2019-02-15T10:03:23.094Z,1028.40
2019-02-15T10:04:23.074Z,1028.49
2019-02-15T10:05:23.066Z,1028.40
2019-02-15T10:06:23.047Z,1028.26
2019-02-15T10:07:23.045Z,1028.33
2019-02-15T10:08:23.026Z,1028.40
2019-02-15T10:09:23.017Z,1028.32
2019-02-15T10:10:23.006Z,1028.29
2019-02-15T10:11:22.997Z,1028.33
2019-02-15T10:12:22.984Z,1028.30
2019-02-15T10:13:22.974Z,1028.32
2019-02-15T10:14:22.961Z,1028.37
2019-02-15T10:15:22.953Z,1028.40
2019-02-15T10:16:28.619Z,1028.40
2019-02-15T10:17:23.943Z,1028.44
2019-02-15T10:18:22.925Z,1028.50
2019-02-15T10:19:22.929Z,1028.43
2019-02-15T10:20:22.903Z,1028.25
2019-02-15T10:21:22.904Z,1028.17
2019-02-15T10:22:22.882Z,1028.30
2019-02-15T10:23:22.883Z,1028.43
2019-02-15T10:24:22.867Z,1028.39
2019-02-15T10:25:22.853Z,1028.41
2019-02-15T10:26:22.846Z,1028.44
2019-02-15T10:27:22.838Z,1028.44
2019-02-15T10:28:22.835Z,1028.42
2019-02-15T10:29:22.839Z,1028.31
2019-02-15T10:30:22.810Z,1028.17
2019-02-15T10:31:22.788Z,1028.09
2019-02-15T10:32:22.809Z,1028.09
2019-02-15T10:33:22.779Z,1027.91
2019-02-15T10:34:22.771Z,1027.83
2019-02-15T10:35:22.763Z,1027.81
2019-02-15T10:36:22.743Z,1027.75
2019-02-15T10:37:22.728Z,1027.78
2019-02-15T10:38:22.723Z,1027.77
2019-02-15T10:39:22.717Z,1027.75
2019-02-15T10:40:22.714Z,1027.74
2019-02-15T10:41:22.697Z,1027.71
2019-02-15T10:42:22.688Z,1027.73
2019-02-15T10:43:22.670Z,1027.80
2019-02-15T10:44:22.659Z,1027.73
2019-02-15T10:45:22.645Z,1027.74
2019-02-15T10:46:22.634Z,1027.73
2019-02-15T10:47:25.105Z,1027.76
2019-02-15T10:48:22.689Z,1027.79
2019-02-15T10:49:22.612Z,1027.80
2019-02-15T10:50:22.598Z,1027.80
2019-02-15T10:51:22.582Z,1027.74
2019-02-15T10:52:22.583Z,1027.75
2019-02-15T10:53:22.561Z,1027.72
2019-02-15T10:54:22.576Z,1027.68
2019-02-15T10:55:22.559Z,1027.71
2019-02-15T10:56:22.552Z,1027.65
2019-02-15T10:57:22.528Z,1027.63
2019-02-15T10:58:22.507Z,1027.58
2019-02-15T10:59:22.496Z,1027.59
2019-02-15T11:00:22.483Z,1027.62
2019-02-15T11:01:22.470Z,1027.63
2019-02-15T11:02:22.471Z,1027.60
2019-02-15T11:03:22.457Z,1027.56
2019-02-15T11:04:22.439Z,1027.58
2019-02-15T11:05:22.441Z,1027.59
2019-02-15T11:06:22.422Z,1027.57
2019-02-15T11:07:22.405Z,1027.58
2019-02-15T11:08:22.406Z,1027.54
2019-02-15T11:09:22.409Z,1027.58
2019-02-15T11:10:22.373Z,1027.60
2019-02-15T11:11:22.369Z,1027.54
2019-02-15T11:12:22.354Z,1027.56
2019-02-15T11:13:22.339Z,1027.55
2019-02-15T11:14:22.344Z,1027.55
2019-02-15T11:15:22.319Z,1027.52
2019-02-15T11:16:22.311Z,1027.46
2019-02-15T11:17:22.302Z,1027.56
2019-02-15T11:18:22.299Z,1027.48
2019-02-15T11:19:22.286Z,1027.46
2019-02-15T11:20:22.272Z,1027.52
2019-02-15T11:21:22.255Z,1027.47
2019-02-15T11:22:22.241Z,1027.43
2019-02-15T11:23:22.241Z,1027.36
2019-02-15T11:24:22.219Z,1027.44
2019-02-15T11:25:22.217Z,1027.39
2019-02-15T11:26:24.750Z,1027.36
2019-02-15T11:27:22.192Z,1027.39
2019-02-15T11:28:22.181Z,1027.34
2019-02-15T11:29:22.168Z,1027.29
2019-02-15T11:30:22.160Z,1027.34
2019-02-15T11:31:22.160Z,1027.31
2019-02-15T11:32:22.158Z,1027.35
2019-02-15T11:33:22.122Z,1027.36
2019-02-15T11:34:22.130Z,1027.39
2019-02-15T11:35:22.109Z,1027.34
2019-02-15T11:36:22.103Z,1027.35
2019-02-15T11:37:22.090Z,1027.30
2019-02-15T11:38:22.075Z,1027.30
2019-02-15T11:39:22.059Z,1027.30
2019-02-15T11:40:22.049Z,1027.27
2019-02-15T11:41:22.057Z,1027.26
2019-02-15T11:42:22.040Z,1027.25
2019-02-15T11:43:22.026Z,1027.24
2019-02-15T11:44:22.010Z,1027.28
2019-02-15T11:45:21.998Z,1027.27
2019-02-15T11:46:21.984Z,1027.22
2019-02-15T11:47:21.979Z,1027.24
2019-02-15T11:48:21.962Z,1027.32
2019-02-15T11:49:21.968Z,1027.27
2019-02-15T11:50:21.958Z,1027.26
2019-02-15T11:51:21.931Z,1027.24
2019-02-15T11:52:21.926Z,1027.26
2019-02-15T11:53:21.911Z,1027.20
2019-02-15T11:54:23.808Z,1027.22
2019-02-15T11:55:21.896Z,1027.21
2019-02-15T11:56:21.879Z,1027.21
2019-02-15T11:57:21.878Z,1027.22
2019-02-15T11:58:21.859Z,1027.20
2019-02-15T11:59:21.857Z,1027.20
2019-02-15T12:00:23.153Z,1027.17
2019-02-15T12:01:21.908Z,1027.19
2019-02-15T12:02:22.069Z,1027.22
2019-02-15T12:03:21.804Z,1027.18
2019-02-15T12:04:21.810Z,1027.16
2019-02-15T12:05:21.799Z,1027.13